This is the latest recevied weather packets stored in our database for station/object G0TQM-11. If no packets are shown the sender has not sent any weather packets the latest 10 day(s).
| Time | Temp. | Humidity | Pressure | Rain* | Wind** | Luminosity | Snow |
|---|---|---|---|---|---|---|---|
| 1777988713 | 22.22° C | 36% | 1012.5 hPa | - | - | - | - |
| 1777987513 | 22.22° C | 36% | 1012.6 hPa | - | - | - | - |
| 1777986313 | 22.22° C | 37% | 1012.6 hPa | - | - | - | - |
| 1777985112 | 22.22° C | 38% | 1012.6 hPa | - | - | - | - |
| 1777983912 | 21.11° C | 39% | 1012.7 hPa | - | - | - | - |
| 1777982712 | 21.67° C | 38% | 1012.7 hPa | - | - | - | - |
| 1777981512 | 18.89° C | 42% | 1012.8 hPa | - | - | - | - |
| 1777980312 | 19.44° C | 42% | 1012.8 hPa | - | - | - | - |
| 1777979112 | 18.89° C | 41% | 1012.9 hPa | - | - | - | - |
| 1777977912 | 18.89° C | 40% | 1013 hPa | - | - | - | - |
| 1777976711 | 18.33° C | 41% | 1012.9 hPa | - | - | - | - |
| 1777975511 | 16.11° C | 47% | 1013 hPa | - | - | - | - |
| 1777974311 | 17.78° C | 44% | 1012.7 hPa | - | - | - | - |
| 1777973111 | 16.67° C | 47% | 1012.8 hPa | - | - | - | - |
| 1777971915 | 14.44° C | 52% | 1012.7 hPa | - | - | - | - |
| 1777971016 | 13.89° C | 53% | 1012.9 hPa | - | - | - | - |
| 1777970711 | 13.89° C | 53% | 1012.9 hPa | - | - | - | - |
| 1777969766 | 12.22° C | 53% | 1012.8 hPa | - | - | - | - |
| 1777969511 | 12.22° C | 53% | 1012.8 hPa | - | - | - | - |
| 1777968305 | 11.67° C | 55% | 1012.9 hPa | - | - | - | - |
| 1777967104 | 11.11° C | 56% | 1012.9 hPa | - | - | - | - |
| 1777965947 | 10.56° C | 54% | 1012.8 hPa | - | - | - | - |
| 1777965904 | 10.56° C | 54% | 1012.8 hPa | - | - | - | - |
| 1777964704 | 9.44° C | 60% | 1012.8 hPa | - | - | - | - |
| 1777963504 | 8.89° C | 58% | 1012.9 hPa | - | - | - | - |
* Rain since midnight (hover to see other rain measurements)
** Current wind speed in m/s (hover to see current wind gust speed)